Time;durP1;ratioP1;P1;durP2;ratioP2;P2;SDS_P1;SDS_P2;PMS_P1;PMS_P2;Temp;Humidity;BMP_temperature;BMP_pressure;BME280_temperature;BME280_humidity;BME280_pressure;Samples;Min_cycle;Max_cycle;Signal;HPM_P1;HPM_P2
2021/09/20 00:01:05;;;;;;;0.10;0.10;;;12.30;99.90;;;;;;5011968;28;20084;-75
2021/09/20 00:03:31;;;;;;;0.10;0.10;;;12.20;99.90;;;;;;4994436;28;20401;-75
2021/09/20 00:05:57;;;;;;;0.38;0.25;;;12.20;99.90;;;;;;4978090;28;20433;-75
2021/09/20 00:08:22;;;;;;;0.20;0.20;;;12.20;99.90;;;;;;5012018;28;20057;-75
2021/09/20 00:10:50;;;;;;;0.10;0.10;;;12.20;99.90;;;;;;5011995;28;20064;-75
2021/09/20 00:13:16;;;;;;;0.57;0.57;;;12.20;99.90;;;;;;4994358;28;20080;-75
2021/09/20 00:15:42;;;;;;;0.10;0.10;;;12.20;99.90;;;;;;5011609;28;20030;-75
2021/09/20 00:18:08;;;;;;;0.20;0.20;;;12.30;99.90;;;;;;4994875;28;20388;-75
2021/09/20 00:20:33;;;;;;;0.10;0.10;;;12.30;99.90;;;;;;5014478;28;20025;-75
2021/09/20 00:22:59;;;;;;;0.10;0.10;;;12.50;99.90;;;;;;5015911;28;20050;-75
2021/09/20 00:25:25;;;;;;;0.10;0.10;;;12.50;99.90;;;;;;5015608;28;20088;-75
2021/09/20 00:27:52;;;;;;;0.10;0.10;;;12.50;99.90;;;;;;5015669;28;20478;-75
2021/09/20 00:30:18;;;;;;;0.10;0.10;;;12.50;99.90;;;;;;5015600;28;20017;-75
2021/09/20 00:32:43;;;;;;;0.10;0.10;;;12.50;99.90;;;;;;4998139;28;20367;-75
2021/09/20 00:35:09;;;;;;;0.10;0.10;;;12.60;99.90;;;;;;5014107;28;20030;-75
2021/09/20 00:37:35;;;;;;;0.10;0.10;;;12.50;99.90;;;;;;5015641;28;20026;-75
2021/09/20 00:40:01;;;;;;;0.10;0.10;;;12.40;99.90;;;;;;5015597;28;20022;-75
2021/09/20 00:42:27;;;;;;;0.10;0.10;;;12.40;99.90;;;;;;5015383;28;20028;-75
2021/09/20 00:44:52;;;;;;;0.20;0.20;;;12.40;99.90;;;;;;5015217;28;20083;-75
2021/09/20 00:47:18;;;;;;;0.08;0.08;;;12.30;99.90;;;;;;5015208;28;20021;-75
2021/09/20 00:49:44;;;;;;;0.10;0.10;;;12.30;99.90;;;;;;5015364;28;20100;-75
2021/09/20 00:52:10;;;;;;;0.10;0.10;;;12.30;99.90;;;;;;4981397;28;20053;-75
2021/09/20 00:54:35;;;;;;;0.10;0.10;;;12.30;99.90;;;;;;5015043;28;20030;-75
2021/09/20 00:57:03;;;;;;;0.10;0.10;;;12.30;99.90;;;;;;5013653;28;20022;-75
2021/09/20 00:59:29;;;;;;;0.10;0.10;;;12.40;99.90;;;;;;4997593;28;20432;-75
2021/09/20 01:01:55;;;;;;;0.10;0.10;;;12.40;99.90;;;;;;5013843;28;20109;-75
2021/09/20 01:04:21;;;;;;;0.90;0.90;;;12.50;99.90;;;;;;4997523;28;20133;-75
2021/09/20 01:06:47;;;;;;;0.10;0.10;;;12.60;99.90;;;;;;5014747;28;20026;-75
2021/09/20 01:09:12;;;;;;;0.10;0.10;;;12.50;99.90;;;;;;4997369;28;20026;-75
2021/09/20 01:11:39;;;;;;;0.10;0.10;;;12.50;99.90;;;;;;5014758;28;20037;-75
2021/09/20 01:14:05;;;;;;;0.03;0.03;;;12.40;99.90;;;;;;5014869;28;20080;-75
2021/09/20 01:16:31;;;;;;;0.20;0.20;;;12.50;99.90;;;;;;5014500;28;20073;-75
2021/09/20 01:18:57;;;;;;;0.10;0.10;;;12.40;99.90;;;;;;5013604;28;20026;-75
2021/09/20 01:21:22;;;;;;;0.03;0.03;;;12.60;99.90;;;;;;5014709;28;20045;-76
2021/09/20 01:23:48;;;;;;;0.10;0.10;;;12.60;99.90;;;;;;4997127;28;20018;-75
2021/09/20 01:26:14;;;;;;;0.10;0.10;;;12.60;99.90;;;;;;5013048;28;20477;-76
2021/09/20 01:28:41;;;;;;;0.10;0.10;;;12.50;99.90;;;;;;4996711;28;20037;-75
2021/09/20 01:31:07;;;;;;;0.00;0.00;;;12.60;99.90;;;;;;5014439;28;20037;-75
2021/09/20 01:33:33;;;;;;;0.10;0.10;;;12.60;99.90;;;;;;5014551;28;20022;-75
2021/09/20 01:35:59;;;;;;;0.10;0.10;;;12.60;99.90;;;;;;4980436;28;20025;-75
2021/09/20 01:38:25;;;;;;;0.10;0.10;;;12.60;99.90;;;;;;4980433;28;20032;-75
2021/09/20 01:40:50;;;;;;;0.30;0.20;;;12.50;99.90;;;;;;4996958;28;20026;-75
2021/09/20 01:43:16;;;;;;;0.10;0.10;;;12.40;99.90;;;;;;4996722;28;20026;-75
2021/09/20 01:45:43;;;;;;;0.00;0.00;;;12.50;99.90;;;;;;5014173;28;20053;-75
2021/09/20 01:48:08;;;;;;;0.30;0.30;;;12.40;99.90;;;;;;4980222;28;20030;-75
2021/09/20 01:50:35;;;;;;;0.10;0.10;;;12.50;99.90;;;;;;4996760;28;20030;-75
2021/09/20 01:53:01;;;;;;;0.10;0.10;;;12.40;99.90;;;;;;5014162;28;20058;-75
2021/09/20 01:55:27;;;;;;;0.10;0.10;;;12.40;99.90;;;;;;5013919;28;20101;-75
2021/09/20 01:57:53;;;;;;;0.10;0.10;;;12.50;99.90;;;;;;5013888;28;20105;-75
2021/09/20 02:00:19;;;;;;;0.10;0.10;;;12.30;99.90;;;;;;5012788;28;20029;-75
2021/09/20 02:02:45;;;;;;;0.35;0.35;;;12.20;99.90;;;;;;5013916;28;20026;-75
2021/09/20 02:05:13;;;;;;;0.10;0.10;;;12.20;99.90;;;;;;4980016;28;20026;-75
2021/09/20 02:07:41;;;;;;;0.00;0.00;;;12.40;99.90;;;;;;4996088;28;20494;-75
2021/09/20 02:10:09;;;;;;;0.10;0.10;;;12.50;99.90;;;;;;4996191;28;20030;-75
2021/09/20 02:12:35;;;;;;;0.10;0.10;;;12.40;99.90;;;;;;5013715;28;20041;-75
2021/09/20 02:15:02;;;;;;;0.03;0.03;;;12.40;99.90;;;;;;5013920;28;20029;-75
2021/09/20 02:17:28;;;;;;;0.22;0.22;;;12.50;99.90;;;;;;4995940;28;20026;-75
2021/09/20 02:19:54;;;;;;;0.10;0.10;;;12.60;99.90;;;;;;5013706;28;20022;-75
2021/09/20 02:22:20;;;;;;;0.10;0.10;;;12.60;99.90;;;;;;5013578;28;20544;-75
2021/09/20 02:24:46;;;;;;;0.10;0.10;;;12.60;99.90;;;;;;5012077;28;20383;-75
2021/09/20 02:27:11;;;;;;;0.88;0.88;;;12.70;99.90;;;;;;4995930;28;20026;-75
2021/09/20 02:29:37;;;;;;;0.10;0.10;;;12.50;99.90;;;;;;5013481;28;20036;-75
2021/09/20 02:32:03;;;;;;;0.10;0.10;;;12.40;99.90;;;;;;4995802;28;20018;-75
2021/09/20 02:34:29;;;;;;;0.10;0.10;;;12.60;99.90;;;;;;5013247;28;20037;-75
2021/09/20 02:36:55;;;;;;;0.10;0.10;;;12.30;99.90;;;;;;5013460;28;20026;-75
2021/09/20 02:39:21;;;;;;;0.10;0.10;;;12.30;99.90;;;;;;5013199;28;20037;-75
2021/09/20 02:41:48;;;;;;;0.10;0.10;;;12.50;99.90;;;;;;5012362;28;20026;-75
2021/09/20 02:44:13;;;;;;;0.10;0.10;;;12.50;99.90;;;;;;4995544;28;20018;-75
2021/09/20 02:46:39;;;;;;;0.10;0.10;;;12.60;99.90;;;;;;4979129;28;20025;-75
2021/09/20 02:49:05;;;;;;;0.10;0.10;;;12.70;99.90;;;;;;5013065;28;20109;-75
2021/09/20 02:51:31;;;;;;;0.10;0.10;;;12.80;99.90;;;;;;4995509;28;20030;-75
2021/09/20 02:53:57;;;;;;;0.47;0.47;;;12.60;99.90;;;;;;5011420;28;20382;-75
2021/09/20 02:56:23;;;;;;;0.13;0.13;;;12.60;99.90;;;;;;5012681;28;20037;-75
2021/09/20 02:58:49;;;;;;;0.10;0.10;;;12.60;99.90;;;;;;4995246;28;20026;-75
2021/09/20 03:01:15;;;;;;;0.20;0.20;;;12.60;99.90;;;;;;5012969;28;20026;-75
2021/09/20 03:03:41;;;;;;;0.85;0.30;;;12.60;99.90;;;;;;4995247;28;20021;-75
2021/09/20 03:06:07;;;;;;;0.17;0.17;;;12.50;99.90;;;;;;4995231;28;20022;-75
2021/09/20 03:08:32;;;;;;;0.40;0.15;;;12.50;99.90;;;;;;5012530;28;20029;-75
2021/09/20 03:10:58;;;;;;;0.10;0.10;;;12.50;99.90;;;;;;4978987;28;20441;-75
2021/09/20 03:13:24;;;;;;;0.15;0.15;;;12.60;99.90;;;;;;4994928;28;20117;-75
2021/09/20 03:15:50;;;;;;;0.10;0.10;;;12.60;99.90;;;;;;5011172;28;20034;-75
2021/09/20 03:18:16;;;;;;;0.10;0.10;;;12.70;99.90;;;;;;5012269;28;20026;-75
2021/09/20 03:20:42;;;;;;;0.57;0.30;;;12.70;99.90;;;;;;5012597;28;20025;-75
2021/09/20 03:23:08;;;;;;;0.10;0.10;;;12.90;99.90;;;;;;4994778;28;20544;-75
2021/09/20 03:25:33;;;;;;;0.10;0.10;;;12.80;99.90;;;;;;5012467;28;20489;-75
2021/09/20 03:27:59;;;;;;;0.20;0.20;;;12.90;99.90;;;;;;4994750;28;20110;-75
2021/09/20 03:30:25;;;;;;;0.32;0.32;;;13.00;99.90;;;;;;5012548;28;20021;-75
2021/09/20 03:32:51;;;;;;;0.30;0.30;;;12.90;99.90;;;;;;5012289;28;20083;-75
2021/09/20 03:35:17;;;;;;;0.13;0.13;;;12.80;99.90;;;;;;5012261;28;20079;-75
2021/09/20 03:37:45;;;;;;;0.20;0.20;;;12.70;99.90;;;;;;4994430;28;20404;-75
2021/09/20 03:40:13;;;;;;;0.10;0.10;;;12.80;99.90;;;;;;5012237;28;20049;-75
2021/09/20 03:42:39;;;;;;;0.65;0.65;;;12.80;99.90;;;;;;4994560;28;20150;-75
2021/09/20 03:45:06;;;;;;;0.10;0.10;;;12.90;99.90;;;;;;5012056;28;20018;-75
2021/09/20 03:47:32;;;;;;;0.10;0.10;;;12.90;99.90;;;;;;4994536;28;20521;-75
2021/09/20 03:49:57;;;;;;;0.10;0.10;;;13.00;99.90;;;;;;4978383;28;20026;-75
2021/09/20 03:52:24;;;;;;;0.20;0.20;;;12.90;99.90;;;;;;4994358;28;20366;-75
2021/09/20 03:54:50;;;;;;;0.13;0.13;;;13.00;99.90;;;;;;5011874;28;20428;-75
2021/09/20 03:57:16;;;;;;;0.17;0.17;;;12.90;99.90;;;;;;5011949;28;20030;-75
2021/09/20 03:59:41;;;;;;;0.10;0.10;;;12.70;99.90;;;;;;4994632;28;20104;-75
2021/09/20 04:02:07;;;;;;;0.10;0.10;;;12.70;99.90;;;;;;5012030;28;20029;-75
2021/09/20 04:04:33;;;;;;;0.10;0.10;;;12.70;99.90;;;;;;4978063;28;20029;-75
2021/09/20 04:07:02;;;;;;;0.28;0.28;;;12.70;99.90;;;;;;4994204;28;20132;-75
2021/09/20 04:09:28;;;;;;;0.10;0.10;;;12.80;99.90;;;;;;5011871;28;20022;-75
2021/09/20 04:11:54;;;;;;;0.10;0.10;;;12.90;99.90;;;;;;5010631;28;20053;-75
2021/09/20 04:14:19;;;;;;;0.10;0.10;;;12.90;99.90;;;;;;5011827;28;20032;-75
2021/09/20 04:16:45;;;;;;;0.10;0.10;;;12.90;99.90;;;;;;5011643;28;20037;-75
2021/09/20 04:19:11;;;;;;;0.10;0.10;;;12.90;99.90;;;;;;4978149;28;20026;-75
2021/09/20 04:21:36;;;;;;;0.10;0.10;;;12.90;99.90;;;;;;4994229;28;20025;-75
2021/09/20 04:24:02;;;;;;;0.10;0.10;;;12.90;99.90;;;;;;5010388;28;20026;-75
2021/09/20 04:26:28;;;;;;;0.10;0.10;;;13.00;99.90;;;;;;5011710;28;20030;-75
2021/09/20 04:28:54;;;;;;;0.10;0.10;;;12.90;99.90;;;;;;4994266;28;20374;-75
2021/09/20 04:31:20;;;;;;;0.10;0.10;;;13.00;99.90;;;;;;4994095;28;20022;-75
2021/09/20 04:33:45;;;;;;;0.10;0.10;;;13.00;99.90;;;;;;4977849;28;20030;-75
2021/09/20 04:36:11;;;;;;;0.10;0.10;;;13.00;99.90;;;;;;4993983;28;20021;-75
2021/09/20 04:38:37;;;;;;;0.10;0.10;;;13.00;99.90;;;;;;4993968;28;20022;-75
2021/09/20 04:41:03;;;;;;;0.10;0.10;;;13.00;99.90;;;;;;4994228;28;20018;-76
2021/09/20 04:43:28;;;;;;;0.20;0.20;;;13.10;99.90;;;;;;4993908;28;20098;-75
2021/09/20 04:45:54;;;;;;;0.10;0.10;;;13.00;99.90;;;;;;5011499;28;20101;-75
2021/09/20 04:48:20;;;;;;;0.10;0.10;;;12.90;99.90;;;;;;5010099;28;20032;-75
2021/09/20 04:50:48;;;;;;;0.10;0.10;;;13.00;99.90;;;;;;5010294;28;20029;-75
2021/09/20 04:53:14;;;;;;;0.10;0.10;;;12.90;99.90;;;;;;5011193;28;20493;-76
2021/09/20 04:55:42;;;;;;;0.10;0.10;;;12.90;99.90;;;;;;4993854;28;20033;-76
2021/09/20 04:58:11;;;;;;;0.20;0.20;;;12.80;99.90;;;;;;5011338;28;20022;-76
2021/09/20 05:00:38;;;;;;;0.10;0.10;;;12.80;99.90;;;;;;4993682;28;20129;-75
2021/09/20 05:03:04;;;;;;;0.20;0.20;;;12.80;99.90;;;;;;5005291;28;20022;-76
2021/09/20 05:05:30;;;;;;;0.10;0.10;;;12.90;99.90;;;;;;4979973;28;20032;-76
2021/09/20 05:07:56;;;;;;;0.10;0.10;;;12.80;99.90;;;;;;4980872;28;20052;-76
2021/09/20 05:10:23;;;;;;;0.10;0.10;;;12.90;99.90;;;;;;5022746;28;20400;-76
2021/09/20 05:12:49;;;;;;;0.10;0.10;;;12.90;99.90;;;;;;5022006;28;20029;-76
2021/09/20 05:15:16;;;;;;;0.10;0.10;;;12.90;99.90;;;;;;4996765;28;20033;-76
2021/09/20 05:17:43;;;;;;;0.10;0.10;;;13.00;99.90;;;;;;5014419;28;20456;-76
2021/09/20 05:20:10;;;;;;;0.10;0.10;;;12.80;99.90;;;;;;4980856;28;20026;-76
2021/09/20 05:22:36;;;;;;;0.10;0.10;;;12.90;99.90;;;;;;4992876;28;20089;-76
2021/09/20 05:25:03;;;;;;;0.20;0.20;;;12.80;99.90;;;;;;4989773;28;20177;-76
2021/09/20 05:27:29;;;;;;;0.10;0.10;;;12.90;99.90;;;;;;5019462;28;20513;-76
2021/09/20 05:29:55;;;;;;;0.10;0.10;;;13.00;99.90;;;;;;5015099;28;20028;-76
2021/09/20 05:32:21;;;;;;;0.55;0.55;;;13.10;99.90;;;;;;4994826;28;20037;-76
2021/09/20 05:34:47;;;;;;;0.10;0.10;;;13.10;99.90;;;;;;4994695;28;20031;-76
2021/09/20 05:37:13;;;;;;;0.10;0.10;;;13.10;99.90;;;;;;4994096;28;20105;-76
2021/09/20 05:39:39;;;;;;;0.10;0.10;;;13.00;99.90;;;;;;4994640;28;20053;-76
2021/09/20 05:42:06;;;;;;;0.10;0.10;;;13.10;99.90;;;;;;4977178;28;20065;-76
2021/09/20 05:44:32;;;;;;;0.10;0.10;;;12.90;99.90;;;;;;4976871;28;20058;-76
2021/09/20 05:46:57;;;;;;;0.25;0.25;;;12.90;99.90;;;;;;4977054;28;20069;-76
2021/09/20 05:49:23;;;;;;;0.10;0.10;;;13.10;99.90;;;;;;4977060;28;20026;-76
2021/09/20 05:51:49;;;;;;;0.03;0.03;;;13.10;99.90;;;;;;4978515;28;20030;-77
2021/09/20 05:54:15;;;;;;;0.30;0.30;;;13.00;99.90;;;;;;5048373;23;20531;-75
2021/09/20 05:56:40;;;;;;;0.08;0.08;;;13.10;99.90;;;;;;5015555;28;20040;-76
2021/09/20 05:59:06;;;;;;;0.10;0.10;;;13.00;99.90;;;;;;5016181;28;20036;-76
2021/09/20 06:01:32;;;;;;;0.10;0.10;;;13.00;99.90;;;;;;5033953;28;20063;-73
2021/09/20 06:03:58;;;;;;;0.03;0.03;;;13.10;99.90;;;;;;5015831;28;20369;-74
2021/09/20 06:06:23;;;;;;;0.10;0.10;;;13.10;99.90;;;;;;5030236;28;20156;-73
2021/09/20 06:08:49;;;;;;;0.10;0.10;;;13.10;99.90;;;;;;5015846;28;20029;-74
2021/09/20 06:11:15;;;;;;;0.10;0.10;;;13.20;99.90;;;;;;4999394;28;20041;-74
2021/09/20 06:13:42;;;;;;;0.10;0.10;;;13.10;99.90;;;;;;5015699;28;20029;-74
2021/09/20 06:16:08;;;;;;;0.10;0.10;;;13.00;99.90;;;;;;5015424;28;20022;-74
2021/09/20 06:18:34;;;;;;;0.10;0.10;;;13.10;99.90;;;;;;5007386;28;20029;-73
2021/09/20 06:21:01;;;;;;;0.10;0.10;;;13.00;99.90;;;;;;5027543;28;20165;-74
2021/09/20 06:23:27;;;;;;;0.10;0.10;;;13.00;99.90;;;;;;5015103;28;20033;-76
2021/09/20 06:25:53;;;;;;;0.10;0.10;;;13.20;99.90;;;;;;5022786;28;20504;-77
2021/09/20 06:28:18;;;;;;;0.10;0.10;;;13.20;99.90;;;;;;5013686;28;20029;-77
2021/09/20 06:30:44;;;;;;;0.10;0.10;;;13.20;99.90;;;;;;4988952;28;20029;-72
2021/09/20 06:33:10;;;;;;;0.10;0.10;;;13.20;99.90;;;;;;5008394;28;20026;-73
2021/09/20 06:35:36;;;;;;;0.10;0.10;;;13.20;99.90;;;;;;5021593;28;20088;-73
2021/09/20 06:38:02;;;;;;;0.10;0.10;;;13.20;99.90;;;;;;5006286;28;20034;-73
2021/09/20 06:40:28;;;;;;;0.10;0.10;;;13.30;99.90;;;;;;5002899;28;20029;-73
2021/09/20 06:42:55;;;;;;;0.10;0.10;;;13.40;99.90;;;;;;4992222;28;20060;-73
2021/09/20 06:45:21;;;;;;;0.10;0.10;;;13.20;99.90;;;;;;5000103;28;20014;-73
2021/09/20 06:47:47;;;;;;;0.10;0.10;;;13.10;99.90;;;;;;5021134;28;20049;-73
2021/09/20 06:50:13;;;;;;;0.10;0.10;;;13.10;99.90;;;;;;5016760;28;20437;-73
2021/09/20 06:52:39;;;;;;;0.10;0.10;;;13.10;99.90;;;;;;5027637;28;20084;-73
2021/09/20 06:55:06;;;;;;;0.10;0.10;;;13.20;99.90;;;;;;5026786;28;20164;-73
2021/09/20 06:57:32;;;;;;;0.00;0.00;;;13.10;99.90;;;;;;4988167;28;20065;-73
2021/09/20 06:59:58;;;;;;;0.10;0.10;;;13.10;99.90;;;;;;5013570;28;20022;-73
2021/09/20 07:02:23;;;;;;;0.00;0.00;;;13.20;99.90;;;;;;4978579;28;20088;-73
2021/09/20 07:04:49;;;;;;;0.10;0.10;;;13.30;99.90;;;;;;5003189;28;20504;-73
2021/09/20 07:07:17;;;;;;;0.10;0.10;;;13.20;99.90;;;;;;4988659;28;20489;-73
2021/09/20 07:09:44;;;;;;;2.40;1.30;;;13.30;99.90;;;;;;5008590;28;20022;-73
2021/09/20 07:12:11;;;;;;;0.10;0.10;;;13.20;99.90;;;;;;4996634;28;20032;-77
2021/09/20 07:14:37;;;;;;;0.30;0.30;;;13.20;99.90;;;;;;5005402;28;20038;-73
2021/09/20 07:17:04;;;;;;;0.10;0.10;;;13.30;99.90;;;;;;5019362;28;20099;-74
2021/09/20 07:19:30;;;;;;;0.10;0.10;;;13.20;99.90;;;;;;5024328;28;20030;-74
2021/09/20 07:21:55;;;;;;;0.10;0.10;;;13.20;99.90;;;;;;4993994;28;20028;-74
2021/09/20 07:24:21;;;;;;;1.00;0.90;;;13.10;99.90;;;;;;5006240;28;20038;-74
2021/09/20 07:26:47;;;;;;;0.10;0.10;;;13.00;99.90;;;;;;5018473;28;20441;-76
2021/09/20 07:29:12;;;;;;;0.10;0.10;;;12.90;99.90;;;;;;5018730;28;20034;-76
2021/09/20 07:31:38;;;;;;;0.10;0.10;;;13.00;99.90;;;;;;5005079;28;20051;-77
2021/09/20 07:34:04;;;;;;;0.10;0.10;;;13.00;99.90;;;;;;5026962;28;20072;-75
2021/09/20 07:36:30;;;;;;;0.25;0.25;;;12.90;99.90;;;;;;5011244;28;20029;-76
2021/09/20 07:38:56;;;;;;;0.10;0.10;;;13.20;99.90;;;;;;5030513;28;20032;-76
2021/09/20 07:41:22;;;;;;;0.10;0.10;;;13.30;99.90;;;;;;5010158;28;20029;-76
2021/09/20 07:43:47;;;;;;;0.10;0.10;;;13.40;99.90;;;;;;5025400;28;20021;-76
2021/09/20 07:46:15;;;;;;;0.10;0.10;;;13.40;99.90;;;;;;4998620;28;20030;-77
2021/09/20 07:48:42;;;;;;;0.10;0.10;;;13.50;99.90;;;;;;5021230;28;20104;-77
2021/09/20 07:51:08;;;;;;;0.38;0.38;;;13.40;99.90;;;;;;4999276;28;20072;-77
2021/09/20 07:53:34;;;;;;;0.10;0.10;;;13.40;99.90;;;;;;4982708;28;20553;-77
2021/09/20 07:55:59;;;;;;;0.10;0.10;;;13.40;99.90;;;;;;5016659;28;20026;-77
2021/09/20 07:58:25;;;;;;;0.10;0.10;;;13.20;99.90;;;;;;4986363;28;20029;-76
2021/09/20 08:00:51;;;;;;;0.10;0.10;;;13.20;99.90;;;;;;5046667;28;20388;-76
2021/09/20 08:03:17;;;;;;;0.00;0.00;;;13.00;99.90;;;;;;5013935;28;20021;-76
2021/09/20 08:05:43;;;;;;;0.22;0.22;;;12.90;99.90;;;;;;5015812;28;20018;-76
2021/09/20 08:08:09;;;;;;;0.10;0.10;;;13.00;99.90;;;;;;5015684;28;20036;-76
2021/09/20 08:10:34;;;;;;;0.10;0.10;;;13.10;99.90;;;;;;5013113;28;20045;-76
2021/09/20 08:13:02;;;;;;;0.10;0.10;;;13.10;99.90;;;;;;5031586;28;20101;-76
2021/09/20 08:15:28;;;;;;;0.10;0.10;;;13.30;99.90;;;;;;5027560;28;20035;-76
2021/09/20 08:17:54;;;;;;;0.10;0.10;;;13.30;99.90;;;;;;5016117;28;20034;-77
2021/09/20 08:20:21;;;;;;;0.20;0.20;;;13.40;99.90;;;;;;5019604;28;20030;-77
2021/09/20 08:22:52;;;;;;;0.10;0.10;;;13.60;99.90;;;;;;5006525;28;20026;-76
2021/09/20 08:25:20;;;;;;;0.10;0.10;;;13.40;99.90;;;;;;5014881;28;20048;-76
2021/09/20 08:27:46;;;;;;;0.10;0.10;;;13.10;99.90;;;;;;5026193;28;20076;-76
2021/09/20 08:30:13;;;;;;;0.20;0.20;;;12.90;99.90;;;;;;5003335;28;20427;-76
2021/09/20 08:32:38;;;;;;;0.22;0.22;;;13.00;99.90;;;;;;5021330;28;20469;-76
2021/09/20 08:35:05;;;;;;;0.47;0.20;;;13.10;99.90;;;;;;5006332;28;20032;-76
2021/09/20 08:37:31;;;;;;;0.10;0.10;;;13.10;99.90;;;;;;5027982;28;20370;-76
2021/09/20 08:39:57;;;;;;;0.10;0.10;;;13.00;99.90;;;;;;5025654;28;20034;-77
2021/09/20 08:42:23;;;;;;;1.08;0.95;;;12.90;99.90;;;;;;5015200;28;20037;-76
2021/09/20 08:44:49;;;;;;;0.13;0.13;;;12.80;99.90;;;;;;5029812;28;20017;-76
2021/09/20 08:47:17;;;;;;;0.10;0.10;;;12.80;99.90;;;;;;5007208;28;20032;-76
2021/09/20 08:49:44;;;;;;;0.10;0.10;;;12.90;99.90;;;;;;5013661;28;20171;-76
2021/09/20 08:52:11;;;;;;;0.40;0.40;;;13.00;99.90;;;;;;5009392;28;20025;-76
2021/09/20 08:54:37;;;;;;;0.10;0.10;;;13.00;99.90;;;;;;5027326;28;20044;-76
2021/09/20 08:57:03;;;;;;;0.10;0.10;;;12.80;99.90;;;;;;5029203;28;20034;-76
2021/09/20 08:59:29;;;;;;;1.13;1.08;;;12.90;99.90;;;;;;5002720;28;20026;-76
2021/09/20 09:01:57;;;;;;;0.20;0.20;;;13.10;99.90;;;;;;5011631;28;20030;-76
2021/09/20 09:04:27;;;;;;;0.20;0.20;;;13.20;99.90;;;;;;5028858;28;20018;-76
2021/09/20 09:07:09;;;;;;;0.32;0.32;;;13.20;99.90;;;;;;5013218;28;20108;-76
2021/09/20 09:09:36;;;;;;;;;;;13.20;99.90;;;;;;5007579;28;20041;-76
2021/09/20 09:12:11;;;;;;;1.00;1.00;;;13.20;99.90;;;;;;5018307;28;19905;-76
2021/09/20 09:14:57;;;;;;;1.55;0.93;;;13.00;99.90;;;;;;5028735;28;20366;-76
2021/09/20 09:17:34;;;;;;;0.10;0.10;;;13.00;99.90;;;;;;5003480;28;20039;-76
2021/09/20 09:20:15;;;;;;;0.10;0.10;;;13.00;99.90;;;;;;5026993;28;20077;-76
2021/09/20 09:22:48;;;;;;;1.20;1.10;;;13.10;99.90;;;;;;5019892;28;20029;-76
2021/09/20 09:25:25;;;;;;;0.30;0.30;;;13.20;99.90;;;;;;4994248;28;20028;-76
2021/09/20 09:27:54;;;;;;;0.75;0.25;;;13.30;99.90;;;;;;5028754;28;20160;-76
2021/09/20 09:30:22;;;;;;;0.17;0.17;;;13.20;99.90;;;;;;5009439;28;20021;-76
2021/09/20 09:33:01;;;;;;;0.38;0.38;;;13.10;99.90;;;;;;5026688;28;20086;-76
2021/09/20 09:35:30;;;;;;;0.10;0.10;;;13.00;99.90;;;;;;5037427;28;20082;-77
2021/09/20 09:38:05;;;;;;;0.13;0.13;;;13.10;99.90;;;;;;5019811;28;20395;-78
2021/09/20 09:40:54;;;;;;;0.17;0.17;;;13.10;99.90;;;;;;5026792;28;20032;-78
2021/09/20 09:43:35;;;;;;;0.40;0.40;;;13.00;99.90;;;;;;5028721;28;20499;-76
2021/09/20 09:46:21;;;;;;;0.10;0.10;;;13.00;99.90;;;;;;5003417;28;20022;-77
2021/09/20 09:48:47;;;;;;;1.45;1.00;;;12.90;99.90;;;;;;5010390;28;20029;-76
2021/09/20 09:51:13;;;;;;;0.40;0.40;;;12.90;99.90;;;;;;5008921;28;20504;-77
2021/09/20 09:53:45;;;;;;;0.10;0.10;;;12.80;99.90;;;;;;4985462;28;20084;-77
2021/09/20 09:56:14;;;;;;;0.30;0.30;;;12.90;99.90;;;;;;5020489;28;20050;-78
2021/09/20 09:58:58;;;;;;;0.10;0.10;;;13.00;99.90;;;;;;5011997;28;20034;-76
2021/09/20 10:01:38;;;;;;;0.45;0.45;;;13.00;99.90;;;;;;5030278;28;20029;-76
2021/09/20 10:04:23;;;;;;;0.10;0.10;;;13.00;99.90;;;;;;5010439;28;20017;-76
2021/09/20 10:06:54;;;;;;;0.20;0.20;;;13.00;99.90;;;;;;5031360;28;20416;-76
2021/09/20 10:09:26;;;;;;;3.30;1.52;;;13.10;99.90;;;;;;5023412;28;20017;-76
2021/09/20 10:11:53;;;;;;;0.10;0.10;;;13.00;99.90;;;;;;5028271;28;20429;-76
2021/09/20 10:14:20;;;;;;;0.10;0.10;;;13.00;99.90;;;;;;5029650;28;20024;-76
2021/09/20 10:16:51;;;;;;;1.23;1.15;;;13.10;99.90;;;;;;5031911;28;20018;-76
2021/09/20 10:19:17;;;;;;;0.50;0.50;;;13.20;99.90;;;;;;5023381;28;20600;-76
2021/09/20 10:21:43;;;;;;;2.10;1.73;;;13.20;99.90;;;;;;5017194;28;20020;-78
2021/09/20 10:24:09;;;;;;;0.17;0.17;;;13.00;99.90;;;;;;5006687;28;20104;-79
2021/09/20 10:26:35;;;;;;;0.20;0.20;;;13.00;99.90;;;;;;4996443;28;20532;-76
2021/09/20 10:29:03;;;;;;;1.58;0.63;;;13.10;99.90;;;;;;5000682;28;20085;-76
2021/09/20 10:31:31;;;;;;;0.40;0.40;;;13.10;99.90;;;;;;5010814;28;20052;-76
2021/09/20 10:34:21;;;;;;;0.30;0.30;;;13.00;99.90;;;;;;5005554;28;20517;-76
2021/09/20 10:36:50;;;;;;;0.95;0.95;;;13.00;99.90;;;;;;5021316;28;20548;-77
2021/09/20 10:39:16;;;;;;;0.40;0.30;;;13.10;99.90;;;;;;5013353;28;20076;-76
2021/09/20 10:41:42;;;;;;;0.20;0.20;;;13.30;99.90;;;;;;5013173;28;20113;-77
2021/09/20 10:44:12;;;;;;;0.80;0.73;;;13.40;99.90;;;;;;5023662;28;20770;-77
2021/09/20 10:46:40;;;;;;;6.95;1.20;;;13.40;99.90;;;;;;5022308;28;20022;-76
2021/09/20 10:49:18;;;;;;;0.10;0.10;;;13.30;99.90;;;;;;5027116;28;20450;-77
2021/09/20 10:52:05;;;;;;;0.57;0.35;;;13.50;99.90;;;;;;5020703;28;20088;-77
2021/09/20 10:54:32;;;;;;;0.25;0.25;;;13.50;99.90;;;;;;5000009;28;20119;-76
2021/09/20 10:57:17;;;;;;;0.10;0.10;;;13.20;99.90;;;;;;5002175;28;20417;-76
2021/09/20 10:59:42;;;;;;;0.10;0.10;;;13.40;99.90;;;;;;5000348;28;20018;-77
2021/09/20 11:02:17;;;;;;;0.22;0.22;;;13.40;99.90;;;;;;5008427;28;20125;-77
2021/09/20 11:04:43;;;;;;;0.10;0.10;;;13.40;99.90;;;;;;5003434;28;20017;-77
2021/09/20 11:07:15;;;;;;;0.10;0.10;;;13.40;99.90;;;;;;5009964;28;20091;-78
2021/09/20 11:09:53;;;;;;;0.10;0.10;;;13.50;99.90;;;;;;4996611;28;20482;-76
2021/09/20 11:12:24;;;;;;;0.10;0.10;;;13.70;99.90;;;;;;5001305;28;20038;-77
2021/09/20 11:15:04;;;;;;;0.20;0.20;;;14.00;99.90;;;;;;5013900;28;20025;-78
2021/09/20 11:17:45;;;;;;;0.17;0.17;;;14.10;99.90;;;;;;5002731;28;20285;-77
2021/09/20 11:20:42;;;;;;;0.30;0.30;;;14.10;99.90;;;;;;5004432;28;20036;-77
2021/09/20 11:23:22;;;;;;;0.68;0.68;;;14.00;99.90;;;;;;5019400;28;20389;-77
2021/09/20 11:26:09;;;;;;;0.15;0.15;;;14.30;99.90;;;;;;5001061;28;20083;-76
2021/09/20 11:28:36;;;;;;;0.15;0.15;;;14.30;99.90;;;;;;5023656;28;20037;-77
2021/09/20 11:31:02;;;;;;;0.10;0.10;;;14.20;99.90;;;;;;5010379;28;20397;-77
2021/09/20 11:33:36;;;;;;;0.45;0.45;;;14.10;99.90;;;;;;5031492;28;20018;-76
2021/09/20 11:36:35;;;;;;;0.17;0.17;;;14.10;99.90;;;;;;4999421;28;20343;-77
2021/09/20 11:39:27;;;;;;;0.20;0.20;;;14.10;99.90;;;;;;5031691;28;20033;-77
2021/09/20 11:42:00;;;;;;;2.42;0.90;;;14.10;99.90;;;;;;4998613;28;20037;-77
2021/09/20 11:44:30;;;;;;;0.20;0.20;;;13.90;99.90;;;;;;5006958;28;20034;-76
2021/09/20 11:46:56;;;;;;;0.20;0.20;;;14.00;99.90;;;;;;5017129;28;20030;-77
2021/09/20 11:49:25;;;;;;;0.55;0.55;;;14.20;99.90;;;;;;5004600;28;20128;-77
2021/09/20 11:51:53;;;;;;;1.63;1.52;;;14.30;99.90;;;;;;5014095;28;20055;-77
2021/09/20 11:54:37;;;;;;;0.10;0.10;;;14.30;99.90;;;;;;5010664;28;20117;-77
2021/09/20 11:57:22;;;;;;;0.20;0.20;;;14.00;99.90;;;;;;5023258;28;20028;-77
2021/09/20 11:59:50;;;;;;;0.10;0.10;;;14.30;99.90;;;;;;5022121;28;20018;-77
2021/09/20 12:02:31;;;;;;;0.15;0.15;;;14.40;99.90;;;;;;5019879;28;20014;-77
2021/09/20 12:04:58;;;;;;;0.55;0.52;;;14.60;99.90;;;;;;5011550;28;20018;-78
2021/09/20 12:07:26;;;;;;;0.10;0.10;;;14.40;99.90;;;;;;5020186;28;20436;-77
2021/09/20 12:09:53;;;;;;;0.10;0.10;;;14.40;99.90;;;;;;5022840;28;20022;-77
2021/09/20 12:12:18;;;;;;;0.10;0.10;;;14.70;99.90;;;;;;4993433;28;20121;-77
2021/09/20 12:15:14;;;;;;;0.10;0.10;;;15.10;99.90;;;;;;5037798;28;20497;-77
2021/09/20 12:17:51;;;;;;;0.10;0.10;;;15.50;99.90;;;;;;5009750;28;20072;-77
2021/09/20 12:20:20;;;;;;;0.13;0.13;;;15.50;99.90;;;;;;4998827;28;20030;-77
2021/09/20 12:22:48;;;;;;;0.20;0.20;;;15.50;99.90;;;;;;5010691;28;20035;-77
2021/09/20 12:25:39;;;;;;;0.20;0.20;;;15.70;99.90;;;;;;4989528;28;20026;-77
2021/09/20 12:28:14;;;;;;;0.10;0.10;;;15.80;99.90;;;;;;5007748;28;20493;-77
2021/09/20 12:31:03;;;;;;;0.20;0.20;;;16.00;99.90;;;;;;4995577;28;20029;-78
2021/09/20 12:33:31;;;;;;;1.20;1.10;;;16.10;99.90;;;;;;5015848;28;20037;-77
2021/09/20 12:35:57;;;;;;;0.32;0.32;;;16.20;99.90;;;;;;5011599;28;20034;-77
2021/09/20 12:38:30;;;;;;;0.25;0.22;;;16.30;99.90;;;;;;5002702;28;20052;-77
2021/09/20 12:41:00;;;;;;;0.10;0.10;;;16.50;99.90;;;;;;5011798;28;20053;-77
2021/09/20 12:43:29;;;;;;;0.25;0.25;;;16.70;99.90;;;;;;5013881;28;20018;-77
2021/09/20 12:45:56;;;;;;;1.15;1.05;;;16.80;99.90;;;;;;5033827;28;20097;-77
2021/09/20 12:48:39;;;;;;;0.15;0.15;;;16.40;99.90;;;;;;5030043;28;20032;-77
2021/09/20 12:51:08;;;;;;;0.17;0.17;;;16.30;99.90;;;;;;4999275;28;20017;-77
2021/09/20 12:53:42;;;;;;;0.10;0.10;;;16.40;99.90;;;;;;5010191;28;20029;-78